sensor_id;sensor_type;location;lat;lon;timestamp;temperature;humidity
76577;DHT22;65441;44.748;37.600;2023-09-19T00:00:38;19.00;48.95
76577;DHT22;65441;44.748;37.600;2023-09-19T00:03:08;18.92;48.92
76577;DHT22;65441;44.748;37.600;2023-09-19T00:05:37;18.87;48.87
76577;DHT22;65441;44.748;37.600;2023-09-19T00:08:06;18.84;49.22
76577;DHT22;65441;44.748;37.600;2023-09-19T00:10:34;18.83;49.35
76577;DHT22;65441;44.748;37.600;2023-09-19T00:13:03;18.82;49.45
76577;DHT22;65441;44.748;37.600;2023-09-19T00:15:40;18.92;48.94
76577;DHT22;65441;44.748;37.600;2023-09-19T00:18:09;18.88;49.47
76577;DHT22;65441;44.748;37.600;2023-09-19T00:20:38;19.00;48.48
76577;DHT22;65441;44.748;37.600;2023-09-19T00:23:06;19.17;47.92
76577;DHT22;65441;44.748;37.600;2023-09-19T00:25:35;19.13;47.73
76577;DHT22;65441;44.748;37.600;2023-09-19T00:28:04;19.25;47.38
76577;DHT22;65441;44.748;37.600;2023-09-19T00:30:34;19.24;47.35
76577;DHT22;65441;44.748;37.600;2023-09-19T00:33:06;19.22;47.58
76577;DHT22;65441;44.748;37.600;2023-09-19T00:35:34;19.23;47.29
76577;DHT22;65441;44.748;37.600;2023-09-19T00:38:03;19.21;47.73
76577;DHT22;65441;44.748;37.600;2023-09-19T00:40:33;19.33;46.72
76577;DHT22;65441;44.748;37.600;2023-09-19T00:43:02;19.37;47.02
76577;DHT22;65441;44.748;37.600;2023-09-19T00:45:30;19.30;47.30
76577;DHT22;65441;44.748;37.600;2023-09-19T00:48:01;19.26;47.04
76577;DHT22;65441;44.748;37.600;2023-09-19T00:50:41;19.35;46.64
76577;DHT22;65441;44.748;37.600;2023-09-19T00:53:14;19.31;46.80
76577;DHT22;65441;44.748;37.600;2023-09-19T00:55:45;19.25;47.01
76577;DHT22;65441;44.748;37.600;2023-09-19T00:58:13;19.26;47.14
76577;DHT22;65441;44.748;37.600;2023-09-19T01:00:41;19.16;47.55
76577;DHT22;65441;44.748;37.600;2023-09-19T01:03:11;19.22;46.71
76577;DHT22;65441;44.748;37.600;2023-09-19T01:05:42;19.15;47.41
76577;DHT22;65441;44.748;37.600;2023-09-19T01:08:11;19.06;47.46
76577;DHT22;65441;44.748;37.600;2023-09-19T01:10:46;19.00;47.77
76577;DHT22;65441;44.748;37.600;2023-09-19T01:13:22;19.01;47.57
76577;DHT22;65441;44.748;37.600;2023-09-19T01:16:01;19.07;47.55
76577;DHT22;65441;44.748;37.600;2023-09-19T01:18:38;19.01;47.77
76577;DHT22;65441;44.748;37.600;2023-09-19T01:21:15;18.98;48.15
76577;DHT22;65441;44.748;37.600;2023-09-19T01:24:16;18.97;48.16
76577;DHT22;65441;44.748;37.600;2023-09-19T01:27:06;19.02;47.93
76577;DHT22;65441;44.748;37.600;2023-09-19T01:29:44;19.09;47.17
76577;DHT22;65441;44.748;37.600;2023-09-19T01:32:17;19.06;47.65
76577;DHT22;65441;44.748;37.600;2023-09-19T01:34:47;19.02;47.67
76577;DHT22;65441;44.748;37.600;2023-09-19T01:37:17;18.98;47.85
76577;DHT22;65441;44.748;37.600;2023-09-19T01:39:48;19.01;47.94
76577;DHT22;65441;44.748;37.600;2023-09-19T01:42:24;19.05;48.19
76577;DHT22;65441;44.748;37.600;2023-09-19T01:45:03;19.00;48.57
76577;DHT22;65441;44.748;37.600;2023-09-19T01:47:38;18.91;48.86
76577;DHT22;65441;44.748;37.600;2023-09-19T01:50:16;18.87;48.53
76577;DHT22;65441;44.748;37.600;2023-09-19T01:52:49;19.07;47.57
76577;DHT22;65441;44.748;37.600;2023-09-19T01:55:22;19.11;47.54
76577;DHT22;65441;44.748;37.600;2023-09-19T01:58:01;19.18;47.50
76577;DHT22;65441;44.748;37.600;2023-09-19T02:00:33;19.17;47.67
76577;DHT22;65441;44.748;37.600;2023-09-19T02:03:03;19.16;47.44
76577;DHT22;65441;44.748;37.600;2023-09-19T02:05:32;19.17;46.44
76577;DHT22;65441;44.748;37.600;2023-09-19T02:08:00;19.23;47.32
76577;DHT22;65441;44.748;37.600;2023-09-19T02:10:29;19.13;47.38
76577;DHT22;65441;44.748;37.600;2023-09-19T02:12:59;19.11;46.89
76577;DHT22;65441;44.748;37.600;2023-09-19T02:15:27;19.10;47.09
76577;DHT22;65441;44.748;37.600;2023-09-19T02:17:55;19.08;47.34
76577;DHT22;65441;44.748;37.600;2023-09-19T02:20:25;19.07;47.18
76577;DHT22;65441;44.748;37.600;2023-09-19T02:22:53;19.09;46.84
76577;DHT22;65441;44.748;37.600;2023-09-19T02:25:21;19.11;47.22
76577;DHT22;65441;44.748;37.600;2023-09-19T02:27:49;19.05;47.29
76577;DHT22;65441;44.748;37.600;2023-09-19T02:30:18;19.02;47.22
76577;DHT22;65441;44.748;37.600;2023-09-19T02:32:47;19.07;47.40
76577;DHT22;65441;44.748;37.600;2023-09-19T02:35:16;19.16;46.38
76577;DHT22;65441;44.748;37.600;2023-09-19T02:37:47;19.13;46.81
76577;DHT22;65441;44.748;37.600;2023-09-19T02:40:15;19.10;46.73
76577;DHT22;65441;44.748;37.600;2023-09-19T02:42:46;19.13;46.75
76577;DHT22;65441;44.748;37.600;2023-09-19T02:45:16;19.16;46.62
76577;DHT22;65441;44.748;37.600;2023-09-19T02:47:48;19.10;46.83
76577;DHT22;65441;44.748;37.600;2023-09-19T02:50:17;19.09;47.15
76577;DHT22;65441;44.748;37.600;2023-09-19T02:52:47;19.03;47.37
76577;DHT22;65441;44.748;37.600;2023-09-19T02:55:17;19.05;47.63
76577;DHT22;65441;44.748;37.600;2023-09-19T02:57:46;19.07;47.10
76577;DHT22;65441;44.748;37.600;2023-09-19T03:00:15;19.03;47.72
76577;DHT22;65441;44.748;37.600;2023-09-19T03:02:48;18.96;47.92
76577;DHT22;65441;44.748;37.600;2023-09-19T03:05:17;18.95;47.99
76577;DHT22;65441;44.748;37.600;2023-09-19T03:07:48;18.93;48.01
76577;DHT22;65441;44.748;37.600;2023-09-19T03:10:17;18.88;48.28
76577;DHT22;65441;44.748;37.600;2023-09-19T03:12:46;18.92;48.05
76577;DHT22;65441;44.748;37.600;2023-09-19T03:15:14;18.97;47.86
76577;DHT22;65441;44.748;37.600;2023-09-19T03:17:46;19.00;47.63
76577;DHT22;65441;44.748;37.600;2023-09-19T03:20:19;18.97;47.93
76577;DHT22;65441;44.748;37.600;2023-09-19T03:22:50;19.03;47.62
76577;DHT22;65441;44.748;37.600;2023-09-19T03:25:19;19.02;47.84
76577;DHT22;65441;44.748;37.600;2023-09-19T03:27:51;19.08;47.40
76577;DHT22;65441;44.748;37.600;2023-09-19T03:30:21;19.11;47.59
76577;DHT22;65441;44.748;37.600;2023-09-19T03:32:49;19.16;46.86
76577;DHT22;65441;44.748;37.600;2023-09-19T03:35:18;19.23;46.23
76577;DHT22;65441;44.748;37.600;2023-09-19T03:37:47;19.24;46.57
76577;DHT22;65441;44.748;37.600;2023-09-19T03:40:18;19.20;46.74
76577;DHT22;65441;44.748;37.600;2023-09-19T03:42:52;19.24;46.38
76577;DHT22;65441;44.748;37.600;2023-09-19T03:45:21;19.27;46.41
76577;DHT22;65441;44.748;37.600;2023-09-19T03:47:52;19.35;46.22
76577;DHT22;65441;44.748;37.600;2023-09-19T03:50:23;20.00;43.74
76577;DHT22;65441;44.748;37.600;2023-09-19T03:52:56;20.81;42.34
76577;DHT22;65441;44.748;37.600;2023-09-19T03:55:26;21.32;41.28
76577;DHT22;65441;44.748;37.600;2023-09-19T03:57:54;21.63;40.30
76577;DHT22;65441;44.748;37.600;2023-09-19T04:00:23;21.88;39.79
76577;DHT22;65441;44.748;37.600;2023-09-19T04:02:53;22.06;38.74
76577;DHT22;65441;44.748;37.600;2023-09-19T04:05:23;22.25;38.05
76577;DHT22;65441;44.748;37.600;2023-09-19T04:07:51;22.42;38.49
76577;DHT22;65441;44.748;37.600;2023-09-19T04:10:20;22.69;37.77
76577;DHT22;65441;44.748;37.600;2023-09-19T04:12:54;22.75;37.56
76577;DHT22;65441;44.748;37.600;2023-09-19T04:15:23;22.69;37.87
76577;DHT22;65441;44.748;37.600;2023-09-19T04:17:54;23.11;37.13
76577;DHT22;65441;44.748;37.600;2023-09-19T04:20:22;22.99;37.14
76577;DHT22;65441;44.748;37.600;2023-09-19T04:22:51;23.38;36.39
76577;DHT22;65441;44.748;37.600;2023-09-19T04:25:19;23.57;35.02
76577;DHT22;65441;44.748;37.600;2023-09-19T04:27:48;24.05;35.19
76577;DHT22;65441;44.748;37.600;2023-09-19T04:30:18;23.90;35.29
76577;DHT22;65441;44.748;37.600;2023-09-19T04:32:48;23.53;35.01
76577;DHT22;65441;44.748;37.600;2023-09-19T04:35:17;23.56;35.11
76577;DHT22;65441;44.748;37.600;2023-09-19T04:37:45;23.94;34.12
76577;DHT22;65441;44.748;37.600;2023-09-19T04:40:14;24.01;34.02
76577;DHT22;65441;44.748;37.600;2023-09-19T04:42:44;24.24;32.99
76577;DHT22;65441;44.748;37.600;2023-09-19T04:45:13;24.55;33.51
76577;DHT22;65441;44.748;37.600;2023-09-19T04:47:43;24.08;33.68
76577;DHT22;65441;44.748;37.600;2023-09-19T04:50:11;24.70;32.77
76577;DHT22;65441;44.748;37.600;2023-09-19T04:52:40;25.09;31.23
76577;DHT22;65441;44.748;37.600;2023-09-19T04:55:11;24.48;32.10
76577;DHT22;65441;44.748;37.600;2023-09-19T04:57:44;23.72;32.86
76577;DHT22;65441;44.748;37.600;2023-09-19T05:00:14;23.44;33.83
76577;DHT22;65441;44.748;37.600;2023-09-19T05:02:45;23.41;33.81
76577;DHT22;65441;44.748;37.600;2023-09-19T05:05:14;23.26;33.14
76577;DHT22;65441;44.748;37.600;2023-09-19T05:07:43;23.46;33.04
76577;DHT22;65441;44.748;37.600;2023-09-19T05:10:12;23.39;32.65
76577;DHT22;65441;44.748;37.600;2023-09-19T05:12:40;23.23;32.94
76577;DHT22;65441;44.748;37.600;2023-09-19T05:15:12;23.27;32.96
76577;DHT22;65441;44.748;37.600;2023-09-19T05:17:41;23.30;32.51
76577;DHT22;65441;44.748;37.600;2023-09-19T05:20:11;23.55;33.26
76577;DHT22;65441;44.748;37.600;2023-09-19T05:22:42;23.67;32.99
76577;DHT22;65441;44.748;37.600;2023-09-19T05:25:10;24.03;33.05
76577;DHT22;65441;44.748;37.600;2023-09-19T05:27:42;24.26;32.54
76577;DHT22;65441;44.748;37.600;2023-09-19T05:30:12;24.33;32.28
76577;DHT22;65441;44.748;37.600;2023-09-19T05:32:42;24.02;33.08
76577;DHT22;65441;44.748;37.600;2023-09-19T05:35:12;23.87;33.38
76577;DHT22;65441;44.748;37.600;2023-09-19T05:37:41;24.13;32.44
76577;DHT22;65441;44.748;37.600;2023-09-19T05:40:10;24.64;31.99
76577;DHT22;65441;44.748;37.600;2023-09-19T05:42:38;24.57;31.56
76577;DHT22;65441;44.748;37.600;2023-09-19T05:45:08;24.46;30.69
76577;DHT22;65441;44.748;37.600;2023-09-19T05:47:39;24.64;31.19
76577;DHT22;65441;44.748;37.600;2023-09-19T05:50:13;25.17;31.02
76577;DHT22;65441;44.748;37.600;2023-09-19T05:52:43;24.91;29.87
76577;DHT22;65441;44.748;37.600;2023-09-19T05:55:12;25.28;31.06
76577;DHT22;65441;44.748;37.600;2023-09-19T05:57:41;25.59;30.51
76577;DHT22;65441;44.748;37.600;2023-09-19T06:00:11;25.46;28.93
76577;DHT22;65441;44.748;37.600;2023-09-19T06:02:40;26.17;29.62
76577;DHT22;65441;44.748;37.600;2023-09-19T06:05:13;26.31;29.86
76577;DHT22;65441;44.748;37.600;2023-09-19T06:07:41;25.45;29.59
76577;DHT22;65441;44.748;37.600;2023-09-19T06:10:10;26.34;29.48
76577;DHT22;65441;44.748;37.600;2023-09-19T06:12:38;26.53;28.74
76577;DHT22;65441;44.748;37.600;2023-09-19T06:15:07;25.89;29.45
76577;DHT22;65441;44.748;37.600;2023-09-19T06:17:39;25.30;28.86
76577;DHT22;65441;44.748;37.600;2023-09-19T06:20:08;25.15;29.21
76577;DHT22;65441;44.748;37.600;2023-09-19T06:22:41;25.62;28.87
76577;DHT22;65441;44.748;37.600;2023-09-19T06:25:10;25.29;29.20
76577;DHT22;65441;44.748;37.600;2023-09-19T06:27:39;25.40;29.13
76577;DHT22;65441;44.748;37.600;2023-09-19T06:30:10;25.62;28.51
76577;DHT22;65441;44.748;37.600;2023-09-19T06:32:39;25.20;29.12
76577;DHT22;65441;44.748;37.600;2023-09-19T06:35:11;25.43;28.40
76577;DHT22;65441;44.748;37.600;2023-09-19T06:37:41;25.12;28.36
76577;DHT22;65441;44.748;37.600;2023-09-19T06:40:11;25.45;28.75
76577;DHT22;65441;44.748;37.600;2023-09-19T06:42:41;25.83;27.23
76577;DHT22;65441;44.748;37.600;2023-09-19T06:45:11;25.92;27.13
76577;DHT22;65441;44.748;37.600;2023-09-19T06:47:40;26.09;27.04
76577;DHT22;65441;44.748;37.600;2023-09-19T06:50:10;25.87;26.86
76577;DHT22;65441;44.748;37.600;2023-09-19T06:52:42;26.31;26.17
76577;DHT22;65441;44.748;37.600;2023-09-19T06:55:11;26.01;27.42
76577;DHT22;65441;44.748;37.600;2023-09-19T06:57:43;25.99;27.45
76577;DHT22;65441;44.748;37.600;2023-09-19T07:00:12;25.83;28.04
76577;DHT22;65441;44.748;37.600;2023-09-19T07:02:45;25.57;28.93
76577;DHT22;65441;44.748;37.600;2023-09-19T07:05:13;25.50;28.95
76577;DHT22;65441;44.748;37.600;2023-09-19T07:07:44;25.77;29.16
76577;DHT22;65441;44.748;37.600;2023-09-19T07:10:13;26.16;28.80
76577;DHT22;65441;44.748;37.600;2023-09-19T07:12:41;26.13;27.45
76577;DHT22;65441;44.748;37.600;2023-09-19T07:15:10;26.56;27.34
76577;DHT22;65441;44.748;37.600;2023-09-19T07:17:38;26.31;28.11
76577;DHT22;65441;44.748;37.600;2023-09-19T07:20:07;26.23;27.75
76577;DHT22;65441;44.748;37.600;2023-09-19T07:22:37;25.87;27.42
76577;DHT22;65441;44.748;37.600;2023-09-19T07:25:08;25.73;27.61
76577;DHT22;65441;44.748;37.600;2023-09-19T07:27:36;26.06;28.26
76577;DHT22;65441;44.748;37.600;2023-09-19T07:30:06;25.87;27.36
76577;DHT22;65441;44.748;37.600;2023-09-19T07:32:35;26.46;27.46
76577;DHT22;65441;44.748;37.600;2023-09-19T07:35:05;26.66;26.13
76577;DHT22;65441;44.748;37.600;2023-09-19T07:37:34;26.51;26.05
76577;DHT22;65441;44.748;37.600;2023-09-19T07:40:03;26.41;27.55
76577;DHT22;65441;44.748;37.600;2023-09-19T07:42:35;27.05;26.82
76577;DHT22;65441;44.748;37.600;2023-09-19T07:45:08;26.50;26.65
76577;DHT22;65441;44.748;37.600;2023-09-19T07:47:43;26.33;27.30
76577;DHT22;65441;44.748;37.600;2023-09-19T07:50:11;26.13;27.73
76577;DHT22;65441;44.748;37.600;2023-09-19T07:52:39;26.43;27.63
76577;DHT22;65441;44.748;37.600;2023-09-19T07:55:08;26.24;27.46
76577;DHT22;65441;44.748;37.600;2023-09-19T07:57:39;26.25;28.03
76577;DHT22;65441;44.748;37.600;2023-09-19T08:00:08;26.76;27.15
76577;DHT22;65441;44.748;37.600;2023-09-19T08:02:41;26.93;26.97
76577;DHT22;65441;44.748;37.600;2023-09-19T08:05:10;27.16;26.34
76577;DHT22;65441;44.748;37.600;2023-09-19T08:07:42;26.99;26.15
76577;DHT22;65441;44.748;37.600;2023-09-19T08:10:12;26.49;26.30
76577;DHT22;65441;44.748;37.600;2023-09-19T08:12:44;26.84;26.30
76577;DHT22;65441;44.748;37.600;2023-09-19T08:15:14;26.61;26.52
76577;DHT22;65441;44.748;37.600;2023-09-19T08:17:42;26.72;26.48
76577;DHT22;65441;44.748;37.600;2023-09-19T08:20:11;26.45;27.29
76577;DHT22;65441;44.748;37.600;2023-09-19T08:22:47;26.83;25.94
76577;DHT22;65441;44.748;37.600;2023-09-19T08:25:16;26.56;26.74
76577;DHT22;65441;44.748;37.600;2023-09-19T08:27:47;26.60;25.88
76577;DHT22;65441;44.748;37.600;2023-09-19T08:30:16;26.58;25.91
76577;DHT22;65441;44.748;37.600;2023-09-19T08:32:46;26.79;26.71
76577;DHT22;65441;44.748;37.600;2023-09-19T08:35:15;27.04;26.51
76577;DHT22;65441;44.748;37.600;2023-09-19T08:37:43;26.64;27.09
76577;DHT22;65441;44.748;37.600;2023-09-19T08:40:13;26.87;27.17
76577;DHT22;65441;44.748;37.600;2023-09-19T08:42:49;27.04;25.92
76577;DHT22;65441;44.748;37.600;2023-09-19T08:45:18;27.41;26.49
76577;DHT22;65441;44.748;37.600;2023-09-19T08:48:06;27.64;25.66
76577;DHT22;65441;44.748;37.600;2023-09-19T08:50:43;27.56;25.87
76577;DHT22;65441;44.748;37.600;2023-09-19T08:53:17;27.65;25.75
76577;DHT22;65441;44.748;37.600;2023-09-19T08:55:50;27.70;24.46
76577;DHT22;65441;44.748;37.600;2023-09-19T08:58:26;27.83;24.54
76577;DHT22;65441;44.748;37.600;2023-09-19T09:00:56;28.32;24.88
76577;DHT22;65441;44.748;37.600;2023-09-19T09:03:32;28.11;22.61
76577;DHT22;65441;44.748;37.600;2023-09-19T09:06:02;27.50;24.37
76577;DHT22;65441;44.748;37.600;2023-09-19T09:08:31;27.39;24.76
76577;DHT22;65441;44.748;37.600;2023-09-19T09:10:59;27.19;23.55
76577;DHT22;65441;44.748;37.600;2023-09-19T09:13:29;27.41;23.62
76577;DHT22;65441;44.748;37.600;2023-09-19T09:15:58;27.29;24.24
76577;DHT22;65441;44.748;37.600;2023-09-19T09:18:26;27.85;23.37
76577;DHT22;65441;44.748;37.600;2023-09-19T09:20:56;27.96;22.63
76577;DHT22;65441;44.748;37.600;2023-09-19T09:23:24;28.32;21.56
76577;DHT22;65441;44.748;37.600;2023-09-19T09:25:56;28.53;21.65
76577;DHT22;65441;44.748;37.600;2023-09-19T09:28:30;28.34;22.17
76577;DHT22;65441;44.748;37.600;2023-09-19T09:31:00;28.32;20.60
76577;DHT22;65441;44.748;37.600;2023-09-19T09:33:29;28.04;23.07
76577;DHT22;65441;44.748;37.600;2023-09-19T09:35:58;28.41;23.40
76577;DHT22;65441;44.748;37.600;2023-09-19T09:38:28;28.68;21.73
76577;DHT22;65441;44.748;37.600;2023-09-19T09:40:59;28.84;20.91
76577;DHT22;65441;44.748;37.600;2023-09-19T09:43:36;28.30;20.99
76577;DHT22;65441;44.748;37.600;2023-09-19T09:46:10;28.85;20.32
76577;DHT22;65441;44.748;37.600;2023-09-19T09:49:06;29.44;19.76
76577;DHT22;65441;44.748;37.600;2023-09-19T09:52:01;29.44;20.21
76577;DHT22;65441;44.748;37.600;2023-09-19T09:54:32;29.21;21.29
76577;DHT22;65441;44.748;37.600;2023-09-19T09:57:09;28.82;20.57
76577;DHT22;65441;44.748;37.600;2023-09-19T09:59:52;29.64;20.12
76577;DHT22;65441;44.748;37.600;2023-09-19T10:02:25;29.23;19.07
76577;DHT22;65441;44.748;37.600;2023-09-19T10:04:56;28.95;20.64
76577;DHT22;65441;44.748;37.600;2023-09-19T10:07:36;28.91;19.70
76577;DHT22;65441;44.748;37.600;2023-09-19T10:10:08;29.44;19.90
76577;DHT22;65441;44.748;37.600;2023-09-19T10:12:45;29.00;19.96
76577;DHT22;65441;44.748;37.600;2023-09-19T10:15:18;28.89;20.97
76577;DHT22;65441;44.748;37.600;2023-09-19T10:17:47;28.69;21.01
76577;DHT22;65441;44.748;37.600;2023-09-19T10:20:17;28.95;20.23
76577;DHT22;65441;44.748;37.600;2023-09-19T10:23:07;29.26;21.76
76577;DHT22;65441;44.748;37.600;2023-09-19T10:25:41;29.98;20.45
76577;DHT22;65441;44.748;37.600;2023-09-19T10:28:11;29.79;20.41
76577;DHT22;65441;44.748;37.600;2023-09-19T10:30:43;29.29;21.78
76577;DHT22;65441;44.748;37.600;2023-09-19T10:33:12;29.79;22.12
76577;DHT22;65441;44.748;37.600;2023-09-19T10:35:43;30.06;22.15
76577;DHT22;65441;44.748;37.600;2023-09-19T10:38:13;29.65;21.65
76577;DHT22;65441;44.748;37.600;2023-09-19T10:40:41;29.78;22.43
76577;DHT22;65441;44.748;37.600;2023-09-19T10:43:15;30.08;21.13
76577;DHT22;65441;44.748;37.600;2023-09-19T10:45:47;30.03;21.08
76577;DHT22;65441;44.748;37.600;2023-09-19T10:48:16;30.22;21.36
76577;DHT22;65441;44.748;37.600;2023-09-19T10:50:51;29.81;20.50
76577;DHT22;65441;44.748;37.600;2023-09-19T10:53:21;29.39;22.77
76577;DHT22;65441;44.748;37.600;2023-09-19T10:55:53;29.74;22.43
76577;DHT22;65441;44.748;37.600;2023-09-19T10:58:28;29.82;22.11
76577;DHT22;65441;44.748;37.600;2023-09-19T11:00:58;29.45;22.54
76577;DHT22;65441;44.748;37.600;2023-09-19T11:03:38;28.83;22.82
76577;DHT22;65441;44.748;37.600;2023-09-19T11:06:12;29.13;23.73
76577;DHT22;65441;44.748;37.600;2023-09-19T11:08:59;29.87;22.69
76577;DHT22;65441;44.748;37.600;2023-09-19T11:11:44;29.42;22.80
76577;DHT22;65441;44.748;37.600;2023-09-19T11:14:38;29.52;21.83
76577;DHT22;65441;44.748;37.600;2023-09-19T11:17:33;29.39;22.58
76577;DHT22;65441;44.748;37.600;2023-09-19T11:20:23;29.88;22.56
76577;DHT22;65441;44.748;37.600;2023-09-19T11:23:18;29.18;22.67
76577;DHT22;65441;44.748;37.600;2023-09-19T11:25:49;29.23;24.17
76577;DHT22;65441;44.748;37.600;2023-09-19T11:28:33;29.15;23.74
76577;DHT22;65441;44.748;37.600;2023-09-19T11:34:45;28.71;24.35
76577;DHT22;65441;44.748;37.600;2023-09-19T11:40:36;29.04;24.18
76577;DHT22;65441;44.748;37.600;2023-09-19T11:43:30;29.28;23.37
76577;DHT22;65441;44.748;37.600;2023-09-19T11:46:07;29.22;25.03
76577;DHT22;65441;44.748;37.600;2023-09-19T11:48:38;29.08;23.62
76577;DHT22;65441;44.748;37.600;2023-09-19T11:51:17;28.41;24.32
76577;DHT22;65441;44.748;37.600;2023-09-19T11:53:55;28.47;24.64
76577;DHT22;65441;44.748;37.600;2023-09-19T11:56:24;28.55;25.32
76577;DHT22;65441;44.748;37.600;2023-09-19T11:58:56;28.65;25.16
76577;DHT22;65441;44.748;37.600;2023-09-19T12:01:29;29.20;24.11
76577;DHT22;65441;44.748;37.600;2023-09-19T12:04:00;29.05;23.66
76577;DHT22;65441;44.748;37.600;2023-09-19T12:06:31;28.93;24.62
76577;DHT22;65441;44.748;37.600;2023-09-19T12:09:00;29.53;23.69
76577;DHT22;65441;44.748;37.600;2023-09-19T12:11:33;29.76;22.94
76577;DHT22;65441;44.748;37.600;2023-09-19T12:14:09;29.52;23.98
76577;DHT22;65441;44.748;37.600;2023-09-19T12:16:38;29.58;23.47
76577;DHT22;65441;44.748;37.600;2023-09-19T12:19:21;29.07;23.76
76577;DHT22;65441;44.748;37.600;2023-09-19T12:21:59;29.13;23.45
76577;DHT22;65441;44.748;37.600;2023-09-19T12:24:31;28.76;25.02
76577;DHT22;65441;44.748;37.600;2023-09-19T12:27:02;28.94;24.78
76577;DHT22;65441;44.748;37.600;2023-09-19T12:29:42;29.13;24.98
76577;DHT22;65441;44.748;37.600;2023-09-19T12:32:11;29.06;25.21
76577;DHT22;65441;44.748;37.600;2023-09-19T12:34:41;29.42;24.85
76577;DHT22;65441;44.748;37.600;2023-09-19T12:37:14;29.50;24.87
76577;DHT22;65441;44.748;37.600;2023-09-19T12:39:48;29.05;24.31
76577;DHT22;65441;44.748;37.600;2023-09-19T12:42:20;28.68;24.44
76577;DHT22;65441;44.748;37.600;2023-09-19T12:44:50;28.59;25.43
76577;DHT22;65441;44.748;37.600;2023-09-19T12:47:22;28.77;25.07
76577;DHT22;65441;44.748;37.600;2023-09-19T12:50:08;28.63;25.62
76577;DHT22;65441;44.748;37.600;2023-09-19T12:52:44;28.92;25.03
76577;DHT22;65441;44.748;37.600;2023-09-19T12:55:21;28.73;25.12
76577;DHT22;65441;44.748;37.600;2023-09-19T12:58:01;28.79;24.63
76577;DHT22;65441;44.748;37.600;2023-09-19T13:00:37;28.92;25.13
76577;DHT22;65441;44.748;37.600;2023-09-19T13:03:13;28.41;23.98
76577;DHT22;65441;44.748;37.600;2023-09-19T13:05:49;27.91;25.50
76577;DHT22;65441;44.748;37.600;2023-09-19T13:08:21;27.84;25.67
76577;DHT22;65441;44.748;37.600;2023-09-19T13:11:17;28.05;26.45
76577;DHT22;65441;44.748;37.600;2023-09-19T13:13:46;28.15;25.58
76577;DHT22;65441;44.748;37.600;2023-09-19T13:16:16;28.12;25.29
76577;DHT22;65441;44.748;37.600;2023-09-19T13:18:50;27.86;26.36
76577;DHT22;65441;44.748;37.600;2023-09-19T13:21:28;27.99;25.88
76577;DHT22;65441;44.748;37.600;2023-09-19T13:24:19;27.67;27.37
76577;DHT22;65441;44.748;37.600;2023-09-19T13:26:47;27.64;26.81
76577;DHT22;65441;44.748;37.600;2023-09-19T13:29:16;27.55;27.06
76577;DHT22;65441;44.748;37.600;2023-09-19T13:31:46;27.67;26.95
76577;DHT22;65441;44.748;37.600;2023-09-19T13:34:15;27.50;26.65
76577;DHT22;65441;44.748;37.600;2023-09-19T13:36:44;27.53;26.65
76577;DHT22;65441;44.748;37.600;2023-09-19T13:39:15;27.44;27.04
76577;DHT22;65441;44.748;37.600;2023-09-19T13:41:46;27.42;27.20
76577;DHT22;65441;44.748;37.600;2023-09-19T13:44:15;27.32;26.67
76577;DHT22;65441;44.748;37.600;2023-09-19T13:46:44;27.24;26.78
76577;DHT22;65441;44.748;37.600;2023-09-19T13:49:13;27.28;27.02
76577;DHT22;65441;44.748;37.600;2023-09-19T13:51:41;27.11;26.88
76577;DHT22;65441;44.748;37.600;2023-09-19T13:54:13;26.85;27.23
76577;DHT22;65441;44.748;37.600;2023-09-19T13:56:41;26.69;26.97
76577;DHT22;65441;44.748;37.600;2023-09-19T13:59:11;26.75;27.51
76577;DHT22;65441;44.748;37.600;2023-09-19T14:01:39;26.87;27.53
76577;DHT22;65441;44.748;37.600;2023-09-19T14:04:08;26.89;27.11
76577;DHT22;65441;44.748;37.600;2023-09-19T14:06:37;26.82;27.48
76577;DHT22;65441;44.748;37.600;2023-09-19T14:09:05;26.67;27.51
76577;DHT22;65441;44.748;37.600;2023-09-19T14:11:34;26.55;27.36
76577;DHT22;65441;44.748;37.600;2023-09-19T14:14:03;26.66;27.74
76577;DHT22;65441;44.748;37.600;2023-09-19T14:16:32;26.49;27.37
76577;DHT22;65441;44.748;37.600;2023-09-19T14:19:00;26.45;27.60
76577;DHT22;65441;44.748;37.600;2023-09-19T14:21:28;26.38;27.78
76577;DHT22;65441;44.748;37.600;2023-09-19T14:23:57;26.32;27.61
76577;DHT22;65441;44.748;37.600;2023-09-19T14:26:25;26.41;27.56
76577;DHT22;65441;44.748;37.600;2023-09-19T14:28:53;26.17;27.78
76577;DHT22;65441;44.748;37.600;2023-09-19T14:31:21;26.12;27.78
76577;DHT22;65441;44.748;37.600;2023-09-19T14:33:55;26.10;28.92
76577;DHT22;65441;44.748;37.600;2023-09-19T14:36:23;26.06;27.74
76577;DHT22;65441;44.748;37.600;2023-09-19T14:38:53;26.01;28.11
76577;DHT22;65441;44.748;37.600;2023-09-19T14:41:24;25.91;28.02
76577;DHT22;65441;44.748;37.600;2023-09-19T14:43:53;25.84;28.07
76577;DHT22;65441;44.748;37.600;2023-09-19T14:46:22;25.77;28.18
76577;DHT22;65441;44.748;37.600;2023-09-19T14:48:51;25.53;28.22
76577;DHT22;65441;44.748;37.600;2023-09-19T14:51:21;25.45;28.77
76577;DHT22;65441;44.748;37.600;2023-09-19T14:53:49;25.47;29.04
76577;DHT22;65441;44.748;37.600;2023-09-19T14:56:18;25.44;29.07
76577;DHT22;65441;44.748;37.600;2023-09-19T14:58:46;25.43;29.11
76577;DHT22;65441;44.748;37.600;2023-09-19T15:01:15;25.32;28.85
76577;DHT22;65441;44.748;37.600;2023-09-19T15:03:44;25.27;29.69
76577;DHT22;65441;44.748;37.600;2023-09-19T15:06:13;25.22;29.08
76577;DHT22;65441;44.748;37.600;2023-09-19T15:08:45;25.18;29.25
76577;DHT22;65441;44.748;37.600;2023-09-19T15:11:14;24.98;30.09
76577;DHT22;65441;44.748;37.600;2023-09-19T15:13:45;24.92;29.98
76577;DHT22;65441;44.748;37.600;2023-09-19T15:16:13;24.82;29.89
76577;DHT22;65441;44.748;37.600;2023-09-19T15:18:43;24.69;30.19
76577;DHT22;65441;44.748;37.600;2023-09-19T15:21:14;24.58;30.48
76577;DHT22;65441;44.748;37.600;2023-09-19T15:23:44;24.53;30.43
76577;DHT22;65441;44.748;37.600;2023-09-19T15:26:14;24.48;30.61
76577;DHT22;65441;44.748;37.600;2023-09-19T15:28:44;24.43;31.77
76577;DHT22;65441;44.748;37.600;2023-09-19T15:31:12;24.35;31.15
76577;DHT22;65441;44.748;37.600;2023-09-19T15:33:41;24.24;31.37
76577;DHT22;65441;44.748;37.600;2023-09-19T15:36:10;24.26;31.86
76577;DHT22;65441;44.748;37.600;2023-09-19T15:38:59;24.05;32.48
76577;DHT22;65441;44.748;37.600;2023-09-19T15:41:30;23.92;33.56
76577;DHT22;65441;44.748;37.600;2023-09-19T15:43:59;23.77;33.44
76577;DHT22;65441;44.748;37.600;2023-09-19T15:46:29;23.67;32.82
76577;DHT22;65441;44.748;37.600;2023-09-19T15:48:58;23.66;33.39